sensor_id;sensor_type;location;lat;lon;timestamp;P1;durP1;ratioP1;P2;durP2;ratioP2
32236;SDS011;18726;44.732;10.550;2022-08-11T00:01:49;8.73;;;4.00;;
32236;SDS011;18726;44.732;10.550;2022-08-11T00:04:55;4.53;;;3.58;;
32236;SDS011;18726;44.732;10.550;2022-08-11T00:08:03;5.68;;;4.00;;
32236;SDS011;18726;44.732;10.550;2022-08-11T00:11:08;3.35;;;3.03;;
32236;SDS011;18726;44.732;10.550;2022-08-11T00:17:30;4.30;;;3.90;;
32236;SDS011;18726;44.732;10.550;2022-08-11T00:20:37;5.68;;;4.15;;
32236;SDS011;18726;44.732;10.550;2022-08-11T00:23:45;6.75;;;3.30;;
32236;SDS011;18726;44.732;10.550;2022-08-11T00:26:55;8.65;;;4.13;;
32236;SDS011;18726;44.732;10.550;2022-08-11T00:29:59;3.88;;;3.15;;
32236;SDS011;18726;44.732;10.550;2022-08-11T00:33:02;3.92;;;3.45;;
32236;SDS011;18726;44.732;10.550;2022-08-11T00:36:08;5.85;;;3.90;;
32236;SDS011;18726;44.732;10.550;2022-08-11T00:39:13;4.05;;;3.58;;
32236;SDS011;18726;44.732;10.550;2022-08-11T00:45:28;4.47;;;3.80;;
32236;SDS011;18726;44.732;10.550;2022-08-11T00:55:44;7.95;;;3.50;;
32236;SDS011;18726;44.732;10.550;2022-08-11T00:59:37;4.38;;;3.63;;
32236;SDS011;18726;44.732;10.550;2022-08-11T01:03:09;5.63;;;3.70;;
32236;SDS011;18726;44.732;10.550;2022-08-11T01:13:42;4.82;;;4.43;;
32236;SDS011;18726;44.732;10.550;2022-08-11T01:24:46;6.57;;;5.97;;
32236;SDS011;18726;44.732;10.550;2022-08-11T01:47:44;5.60;;;4.20;;
32236;SDS011;18726;44.732;10.550;2022-08-11T01:54:30;7.30;;;4.38;;
32236;SDS011;18726;44.732;10.550;2022-08-11T01:57:43;5.25;;;4.40;;
32236;SDS011;18726;44.732;10.550;2022-08-11T02:01:15;5.07;;;4.68;;
32236;SDS011;18726;44.732;10.550;2022-08-11T02:04:53;8.20;;;4.53;;
32236;SDS011;18726;44.732;10.550;2022-08-11T02:08:10;5.22;;;4.72;;
32236;SDS011;18726;44.732;10.550;2022-08-11T02:11:35;4.72;;;3.58;;
32236;SDS011;18726;44.732;10.550;2022-08-11T02:14:48;3.63;;;3.33;;
32236;SDS011;18726;44.732;10.550;2022-08-11T02:21:10;5.88;;;4.60;;
32236;SDS011;18726;44.732;10.550;2022-08-11T02:24:42;4.20;;;3.90;;
32236;SDS011;18726;44.732;10.550;2022-08-11T02:28:37;5.07;;;4.68;;
32236;SDS011;18726;44.732;10.550;2022-08-11T02:38:42;3.78;;;3.47;;
32236;SDS011;18726;44.732;10.550;2022-08-11T02:41:57;5.43;;;4.90;;
32236;SDS011;18726;44.732;10.550;2022-08-11T02:56:08;7.03;;;6.40;;
32236;SDS011;18726;44.732;10.550;2022-08-11T03:06:34;12.52;;;10.35;;
32236;SDS011;18726;44.732;10.550;2022-08-11T03:09:52;10.57;;;9.57;;
32236;SDS011;18726;44.732;10.550;2022-08-11T03:13:21;12.45;;;9.23;;
32236;SDS011;18726;44.732;10.550;2022-08-11T03:16:59;10.35;;;9.45;;
32236;SDS011;18726;44.732;10.550;2022-08-11T03:23:40;12.90;;;11.57;;
32236;SDS011;18726;44.732;10.550;2022-08-11T03:27:04;13.00;;;11.70;;
32236;SDS011;18726;44.732;10.550;2022-08-11T03:40:27;15.23;;;11.02;;
32236;SDS011;18726;44.732;10.550;2022-08-11T03:54:19;12.68;;;11.45;;
32236;SDS011;18726;44.732;10.550;2022-08-11T04:18:35;9.95;;;9.00;;
32236;SDS011;18726;44.732;10.550;2022-08-11T04:56:50;5.13;;;4.50;;
32236;SDS011;18726;44.732;10.550;2022-08-11T05:00:20;5.72;;;4.90;;
32236;SDS011;18726;44.732;10.550;2022-08-11T05:17:41;5.32;;;4.82;;
32236;SDS011;18726;44.732;10.550;2022-08-11T05:21:08;6.50;;;4.57;;
32236;SDS011;18726;44.732;10.550;2022-08-11T05:24:40;4.88;;;4.30;;
32236;SDS011;18726;44.732;10.550;2022-08-11T05:31:42;5.07;;;4.60;;
32236;SDS011;18726;44.732;10.550;2022-08-11T05:35:10;5.68;;;4.60;;
32236;SDS011;18726;44.732;10.550;2022-08-11T05:38:17;5.43;;;4.30;;
32236;SDS011;18726;44.732;10.550;2022-08-11T05:41:45;7.95;;;4.75;;
32236;SDS011;18726;44.732;10.550;2022-08-11T05:45:13;5.25;;;4.18;;
32236;SDS011;18726;44.732;10.550;2022-08-11T05:48:36;7.80;;;4.40;;
32236;SDS011;18726;44.732;10.550;2022-08-11T05:52:02;7.30;;;4.03;;
32236;SDS011;18726;44.732;10.550;2022-08-11T05:55:25;4.43;;;3.92;;
32236;SDS011;18726;44.732;10.550;2022-08-11T05:58:50;5.88;;;3.78;;
32236;SDS011;18726;44.732;10.550;2022-08-11T06:02:02;6.40;;;4.63;;
32236;SDS011;18726;44.732;10.550;2022-08-11T06:05:08;5.03;;;4.18;;
32236;SDS011;18726;44.732;10.550;2022-08-11T06:08:13;6.53;;;4.45;;
32236;SDS011;18726;44.732;10.550;2022-08-11T06:11:17;7.88;;;5.03;;
32236;SDS011;18726;44.732;10.550;2022-08-11T06:14:21;11.10;;;5.10;;
32236;SDS011;18726;44.732;10.550;2022-08-11T06:17:27;5.78;;;4.03;;
32236;SDS011;18726;44.732;10.550;2022-08-11T06:20:37;11.32;;;4.25;;
32236;SDS011;18726;44.732;10.550;2022-08-11T06:23:52;5.40;;;4.00;;
32236;SDS011;18726;44.732;10.550;2022-08-11T06:26:58;8.43;;;5.10;;
32236;SDS011;18726;44.732;10.550;2022-08-11T06:30:03;5.28;;;4.78;;
32236;SDS011;18726;44.732;10.550;2022-08-11T06:33:44;4.25;;;3.70;;
32236;SDS011;18726;44.732;10.550;2022-08-11T06:37:13;4.13;;;3.72;;
32236;SDS011;18726;44.732;10.550;2022-08-11T06:44:17;4.38;;;3.92;;
32236;SDS011;18726;44.732;10.550;2022-08-11T06:47:34;7.32;;;4.20;;
32236;SDS011;18726;44.732;10.550;2022-08-11T06:50:38;5.63;;;3.70;;
32236;SDS011;18726;44.732;10.550;2022-08-11T06:54:01;5.25;;;4.70;;
32236;SDS011;18726;44.732;10.550;2022-08-11T06:57:05;7.53;;;4.30;;
32236;SDS011;18726;44.732;10.550;2022-08-11T07:00:30;5.15;;;4.65;;
32236;SDS011;18726;44.732;10.550;2022-08-11T07:03:38;6.43;;;4.40;;
32236;SDS011;18726;44.732;10.550;2022-08-11T07:14:37;4.18;;;3.78;;
32236;SDS011;18726;44.732;10.550;2022-08-11T07:18:06;9.55;;;6.72;;
32236;SDS011;18726;44.732;10.550;2022-08-11T07:21:31;10.43;;;7.35;;
32236;SDS011;18726;44.732;10.550;2022-08-11T07:25:00;5.85;;;5.00;;
32236;SDS011;18726;44.732;10.550;2022-08-11T07:28:46;5.45;;;3.80;;
32236;SDS011;18726;44.732;10.550;2022-08-11T07:31:58;4.07;;;3.40;;
32236;SDS011;18726;44.732;10.550;2022-08-11T07:35:16;3.90;;;3.00;;
32236;SDS011;18726;44.732;10.550;2022-08-11T07:38:25;3.58;;;3.03;;
32236;SDS011;18726;44.732;10.550;2022-08-11T07:41:46;7.65;;;3.08;;
32236;SDS011;18726;44.732;10.550;2022-08-11T07:44:52;6.20;;;3.22;;
32236;SDS011;18726;44.732;10.550;2022-08-11T07:48:17;5.35;;;2.80;;
32236;SDS011;18726;44.732;10.550;2022-08-11T07:51:41;3.20;;;2.47;;
32236;SDS011;18726;44.732;10.550;2022-08-11T07:55:07;6.55;;;2.67;;
32236;SDS011;18726;44.732;10.550;2022-08-11T08:01:38;3.20;;;2.65;;
32236;SDS011;18726;44.732;10.550;2022-08-11T08:05:03;2.65;;;2.20;;
32236;SDS011;18726;44.732;10.550;2022-08-11T08:08:27;6.28;;;2.72;;
32236;SDS011;18726;44.732;10.550;2022-08-11T08:11:51;4.43;;;2.38;;
32236;SDS011;18726;44.732;10.550;2022-08-11T08:15:14;2.80;;;2.17;;
32236;SDS011;18726;44.732;10.550;2022-08-11T08:18:38;2.80;;;2.05;;
32236;SDS011;18726;44.732;10.550;2022-08-11T08:21:43;3.05;;;2.25;;
32236;SDS011;18726;44.732;10.550;2022-08-11T08:24:49;2.63;;;2.40;;
32236;SDS011;18726;44.732;10.550;2022-08-11T08:27:54;3.30;;;2.00;;
32236;SDS011;18726;44.732;10.550;2022-08-11T08:30:59;3.05;;;2.28;;
32236;SDS011;18726;44.732;10.550;2022-08-11T08:34:03;5.75;;;2.45;;
32236;SDS011;18726;44.732;10.550;2022-08-11T08:37:06;7.35;;;2.45;;
32236;SDS011;18726;44.732;10.550;2022-08-11T08:40:10;4.13;;;2.50;;
32236;SDS011;18726;44.732;10.550;2022-08-11T08:43:15;3.30;;;2.38;;
32236;SDS011;18726;44.732;10.550;2022-08-11T08:46:24;5.32;;;2.63;;
32236;SDS011;18726;44.732;10.550;2022-08-11T08:49:34;3.03;;;2.67;;
32236;SDS011;18726;44.732;10.550;2022-08-11T08:52:42;4.22;;;2.85;;
32236;SDS011;18726;44.732;10.550;2022-08-11T08:55:50;5.32;;;2.95;;
32236;SDS011;18726;44.732;10.550;2022-08-11T08:59:00;7.00;;;2.72;;
32236;SDS011;18726;44.732;10.550;2022-08-11T09:02:05;4.25;;;2.20;;
32236;SDS011;18726;44.732;10.550;2022-08-11T09:05:10;3.10;;;2.50;;
32236;SDS011;18726;44.732;10.550;2022-08-11T09:08:17;3.10;;;2.53;;
32236;SDS011;18726;44.732;10.550;2022-08-11T09:11:23;5.07;;;2.45;;
32236;SDS011;18726;44.732;10.550;2022-08-11T09:14:47;5.43;;;3.22;;
32236;SDS011;18726;44.732;10.550;2022-08-11T09:18:05;4.13;;;3.03;;
32236;SDS011;18726;44.732;10.550;2022-08-11T09:21:11;4.93;;;3.05;;
32236;SDS011;18726;44.732;10.550;2022-08-11T09:24:17;3.45;;;3.13;;
32236;SDS011;18726;44.732;10.550;2022-08-11T09:27:41;6.45;;;3.08;;
32236;SDS011;18726;44.732;10.550;2022-08-11T09:30:46;9.25;;;3.75;;
32236;SDS011;18726;44.732;10.550;2022-08-11T09:33:55;6.57;;;3.28;;
32236;SDS011;18726;44.732;10.550;2022-08-11T09:37:00;4.70;;;3.00;;
32236;SDS011;18726;44.732;10.550;2022-08-11T09:40:25;4.18;;;2.35;;
32236;SDS011;18726;44.732;10.550;2022-08-11T09:43:32;4.07;;;2.78;;
32236;SDS011;18726;44.732;10.550;2022-08-11T09:46:59;2.72;;;2.53;;
32236;SDS011;18726;44.732;10.550;2022-08-11T09:50:05;4.65;;;3.53;;
32236;SDS011;18726;44.732;10.550;2022-08-11T09:53:11;3.60;;;3.30;;
32236;SDS011;18726;44.732;10.550;2022-08-11T09:56:19;4.53;;;3.40;;
32236;SDS011;18726;44.732;10.550;2022-08-11T09:59:44;5.85;;;4.15;;
32236;SDS011;18726;44.732;10.550;2022-08-11T10:02:48;4.25;;;3.35;;
32236;SDS011;18726;44.732;10.550;2022-08-11T10:05:58;4.72;;;3.22;;
32236;SDS011;18726;44.732;10.550;2022-08-11T10:09:25;7.47;;;3.95;;
32236;SDS011;18726;44.732;10.550;2022-08-11T10:12:36;4.68;;;3.85;;
32236;SDS011;18726;44.732;10.550;2022-08-11T10:15:44;3.60;;;3.28;;
32236;SDS011;18726;44.732;10.550;2022-08-11T10:18:49;7.25;;;3.30;;
32236;SDS011;18726;44.732;10.550;2022-08-11T10:21:56;5.95;;;3.47;;
32236;SDS011;18726;44.732;10.550;2022-08-11T10:25:19;3.95;;;3.50;;
32236;SDS011;18726;44.732;10.550;2022-08-11T10:28:42;5.43;;;3.80;;
32236;SDS011;18726;44.732;10.550;2022-08-11T10:31:47;4.22;;;2.97;;
32236;SDS011;18726;44.732;10.550;2022-08-11T10:35:10;6.22;;;3.13;;
32236;SDS011;18726;44.732;10.550;2022-08-11T10:38:16;4.25;;;3.10;;
32236;SDS011;18726;44.732;10.550;2022-08-11T10:41:21;5.03;;;3.20;;
32236;SDS011;18726;44.732;10.550;2022-08-11T10:44:44;4.82;;;4.40;;
32236;SDS011;18726;44.732;10.550;2022-08-11T10:47:53;5.38;;;3.20;;
32236;SDS011;18726;44.732;10.550;2022-08-11T10:50:58;3.67;;;3.00;;
32236;SDS011;18726;44.732;10.550;2022-08-11T10:54:16;4.22;;;3.42;;
32236;SDS011;18726;44.732;10.550;2022-08-11T10:57:39;4.47;;;3.38;;
32236;SDS011;18726;44.732;10.550;2022-08-11T11:01:01;5.00;;;3.08;;
32236;SDS011;18726;44.732;10.550;2022-08-11T11:04:08;3.30;;;3.00;;
32236;SDS011;18726;44.732;10.550;2022-08-11T11:07:17;3.10;;;2.22;;
32236;SDS011;18726;44.732;10.550;2022-08-11T11:10:26;2.60;;;2.40;;
32236;SDS011;18726;44.732;10.550;2022-08-11T11:13:30;3.17;;;2.88;;
32236;SDS011;18726;44.732;10.550;2022-08-11T11:16:55;4.68;;;2.60;;
32236;SDS011;18726;44.732;10.550;2022-08-11T11:20:18;3.75;;;3.40;;
32236;SDS011;18726;44.732;10.550;2022-08-11T11:23:26;4.10;;;3.33;;
32236;SDS011;18726;44.732;10.550;2022-08-11T11:29:51;4.10;;;3.40;;
32236;SDS011;18726;44.732;10.550;2022-08-11T11:33:13;7.35;;;2.85;;
32236;SDS011;18726;44.732;10.550;2022-08-11T11:36:29;3.53;;;3.22;;
32236;SDS011;18726;44.732;10.550;2022-08-11T11:39:44;3.65;;;3.10;;
32236;SDS011;18726;44.732;10.550;2022-08-11T11:42:49;3.20;;;2.75;;
32236;SDS011;18726;44.732;10.550;2022-08-11T11:45:56;3.78;;;2.90;;
32236;SDS011;18726;44.732;10.550;2022-08-11T11:48:59;3.53;;;3.22;;
32236;SDS011;18726;44.732;10.550;2022-08-11T11:52:13;3.37;;;3.07;;
32236;SDS011;18726;44.732;10.550;2022-08-11T11:55:26;4.20;;;3.63;;
32236;SDS011;18726;44.732;10.550;2022-08-11T11:58:31;3.70;;;3.17;;
32236;SDS011;18726;44.732;10.550;2022-08-11T12:01:53;3.53;;;2.83;;
32236;SDS011;18726;44.732;10.550;2022-08-11T12:04:59;3.42;;;2.88;;
32236;SDS011;18726;44.732;10.550;2022-08-11T12:08:04;4.35;;;2.70;;
32236;SDS011;18726;44.732;10.550;2022-08-11T12:11:19;4.78;;;2.55;;
32236;SDS011;18726;44.732;10.550;2022-08-11T12:14:43;2.85;;;2.53;;
32236;SDS011;18726;44.732;10.550;2022-08-11T12:17:47;2.75;;;2.55;;
32236;SDS011;18726;44.732;10.550;2022-08-11T12:20:52;6.10;;;2.90;;
32236;SDS011;18726;44.732;10.550;2022-08-11T12:23:56;3.25;;;2.47;;
32236;SDS011;18726;44.732;10.550;2022-08-11T12:27:21;4.22;;;2.90;;
32236;SDS011;18726;44.732;10.550;2022-08-11T12:30:26;7.97;;;2.78;;
32236;SDS011;18726;44.732;10.550;2022-08-11T12:33:31;5.55;;;2.65;;
32236;SDS011;18726;44.732;10.550;2022-08-11T12:36:39;2.25;;;2.05;;
32236;SDS011;18726;44.732;10.550;2022-08-11T12:39:48;4.18;;;2.72;;
32236;SDS011;18726;44.732;10.550;2022-08-11T12:43:15;5.57;;;2.42;;
32236;SDS011;18726;44.732;10.550;2022-08-11T12:46:39;3.15;;;2.20;;
32236;SDS011;18726;44.732;10.550;2022-08-11T12:49:48;5.63;;;2.50;;
32236;SDS011;18726;44.732;10.550;2022-08-11T12:53:12;3.03;;;2.58;;
32236;SDS011;18726;44.732;10.550;2022-08-11T12:56:16;3.33;;;2.20;;
32236;SDS011;18726;44.732;10.550;2022-08-11T12:59:40;3.25;;;2.78;;
32236;SDS011;18726;44.732;10.550;2022-08-11T13:03:04;2.65;;;2.45;;
32236;SDS011;18726;44.732;10.550;2022-08-11T13:06:28;2.25;;;2.05;;
32236;SDS011;18726;44.732;10.550;2022-08-11T13:09:33;3.63;;;2.70;;
32236;SDS011;18726;44.732;10.550;2022-08-11T13:12:37;5.43;;;3.10;;
32236;SDS011;18726;44.732;10.550;2022-08-11T13:15:50;4.13;;;2.45;;
32236;SDS011;18726;44.732;10.550;2022-08-11T13:18:58;5.72;;;2.70;;
32236;SDS011;18726;44.732;10.550;2022-08-11T13:22:02;3.72;;;2.50;;
32236;SDS011;18726;44.732;10.550;2022-08-11T13:25:09;3.70;;;2.40;;
32236;SDS011;18726;44.732;10.550;2022-08-11T13:28:17;3.33;;;2.15;;
32236;SDS011;18726;44.732;10.550;2022-08-11T13:31:23;2.67;;;2.45;;
32236;SDS011;18726;44.732;10.550;2022-08-11T13:34:28;4.38;;;2.63;;
32236;SDS011;18726;44.732;10.550;2022-08-11T13:37:36;2.80;;;2.47;;
32236;SDS011;18726;44.732;10.550;2022-08-11T13:40:41;3.13;;;2.50;;
32236;SDS011;18726;44.732;10.550;2022-08-11T13:43:45;5.45;;;2.67;;
32236;SDS011;18726;44.732;10.550;2022-08-11T13:46:49;3.60;;;2.53;;
32236;SDS011;18726;44.732;10.550;2022-08-11T13:49:54;8.30;;;3.45;;
32236;SDS011;18726;44.732;10.550;2022-08-11T13:52:59;2.35;;;2.15;;
32236;SDS011;18726;44.732;10.550;2022-08-11T13:56:02;2.97;;;2.70;;
32236;SDS011;18726;44.732;10.550;2022-08-11T13:59:06;4.32;;;2.65;;
32236;SDS011;18726;44.732;10.550;2022-08-11T14:02:15;4.40;;;3.63;;
32236;SDS011;18726;44.732;10.550;2022-08-11T14:05:21;2.75;;;2.22;;
32236;SDS011;18726;44.732;10.550;2022-08-11T14:08:29;3.08;;;2.78;;
32236;SDS011;18726;44.732;10.550;2022-08-11T14:11:37;3.22;;;2.50;;
32236;SDS011;18726;44.732;10.550;2022-08-11T14:15:06;4.25;;;2.70;;
32236;SDS011;18726;44.732;10.550;2022-08-11T14:18:27;4.00;;;3.13;;
32236;SDS011;18726;44.732;10.550;2022-08-11T14:21:38;3.20;;;2.90;;
32236;SDS011;18726;44.732;10.550;2022-08-11T14:25:03;3.35;;;2.58;;
32236;SDS011;18726;44.732;10.550;2022-08-11T14:28:09;3.17;;;2.67;;
32236;SDS011;18726;44.732;10.550;2022-08-11T14:31:13;3.30;;;2.70;;
32236;SDS011;18726;44.732;10.550;2022-08-11T14:34:18;3.22;;;2.67;;
32236;SDS011;18726;44.732;10.550;2022-08-11T14:37:24;3.30;;;2.67;;
32236;SDS011;18726;44.732;10.550;2022-08-11T14:40:30;2.53;;;2.33;;
32236;SDS011;18726;44.732;10.550;2022-08-11T14:43:52;2.58;;;2.33;;
32236;SDS011;18726;44.732;10.550;2022-08-11T14:47:17;5.28;;;2.80;;
32236;SDS011;18726;44.732;10.550;2022-08-11T14:50:22;4.70;;;2.95;;
32236;SDS011;18726;44.732;10.550;2022-08-11T14:53:29;2.83;;;2.60;;
32236;SDS011;18726;44.732;10.550;2022-08-11T14:56:34;3.15;;;2.67;;
32236;SDS011;18726;44.732;10.550;2022-08-11T14:59:39;2.92;;;1.90;;
32236;SDS011;18726;44.732;10.550;2022-08-11T15:02:45;2.92;;;2.72;;
32236;SDS011;18726;44.732;10.550;2022-08-11T15:06:09;3.17;;;2.70;;
32236;SDS011;18726;44.732;10.550;2022-08-11T15:09:13;3.05;;;2.65;;
32236;SDS011;18726;44.732;10.550;2022-08-11T15:12:18;3.20;;;2.58;;
32236;SDS011;18726;44.732;10.550;2022-08-11T15:15:22;5.63;;;2.75;;
32236;SDS011;18726;44.732;10.550;2022-08-11T15:18:47;2.80;;;2.30;;
32236;SDS011;18726;44.732;10.550;2022-08-11T15:21:51;2.60;;;2.15;;
32236;SDS011;18726;44.732;10.550;2022-08-11T15:25:13;4.93;;;2.88;;
32236;SDS011;18726;44.732;10.550;2022-08-11T15:28:18;3.03;;;2.72;;
32236;SDS011;18726;44.732;10.550;2022-08-11T15:31:42;4.50;;;3.05;;
32236;SDS011;18726;44.732;10.550;2022-08-11T15:35:05;3.30;;;3.00;;
32236;SDS011;18726;44.732;10.550;2022-08-11T15:38:28;3.03;;;2.72;;
32236;SDS011;18726;44.732;10.550;2022-08-11T15:41:53;3.20;;;2.63;;
32236;SDS011;18726;44.732;10.550;2022-08-11T15:45:21;4.72;;;2.92;;
32236;SDS011;18726;44.732;10.550;2022-08-11T15:52:15;4.40;;;2.58;;
32236;SDS011;18726;44.732;10.550;2022-08-11T15:58:32;3.50;;;2.50;;
32236;SDS011;18726;44.732;10.550;2022-08-11T16:01:59;4.47;;;2.60;;
32236;SDS011;18726;44.732;10.550;2022-08-11T16:05:15;5.57;;;2.92;;
32236;SDS011;18726;44.732;10.550;2022-08-11T16:08:20;3.72;;;3.00;;
32236;SDS011;18726;44.732;10.550;2022-08-11T16:11:27;4.90;;;3.00;;
32236;SDS011;18726;44.732;10.550;2022-08-11T16:14:32;2.35;;;2.15;;
32236;SDS011;18726;44.732;10.550;2022-08-11T16:17:58;2.90;;;2.60;;
32236;SDS011;18726;44.732;10.550;2022-08-11T16:21:10;3.38;;;2.95;;
32236;SDS011;18726;44.732;10.550;2022-08-11T16:24:19;3.33;;;2.40;;
32236;SDS011;18726;44.732;10.550;2022-08-11T16:27:26;4.10;;;2.45;;
32236;SDS011;18726;44.732;10.550;2022-08-11T16:30:39;3.60;;;2.60;;
32236;SDS011;18726;44.732;10.550;2022-08-11T16:33:46;5.68;;;2.90;;
32236;SDS011;18726;44.732;10.550;2022-08-11T16:36:52;2.50;;;2.30;;
32236;SDS011;18726;44.732;10.550;2022-08-11T16:40:16;4.72;;;2.55;;
32236;SDS011;18726;44.732;10.550;2022-08-11T16:43:22;2.92;;;2.47;;
32236;SDS011;18726;44.732;10.550;2022-08-11T16:46:47;3.38;;;2.78;;
32236;SDS011;18726;44.732;10.550;2022-08-11T16:50:01;3.28;;;2.50;;
32236;SDS011;18726;44.732;10.550;2022-08-11T16:53:05;4.00;;;3.20;;
32236;SDS011;18726;44.732;10.550;2022-08-11T16:56:10;4.05;;;2.60;;
32236;SDS011;18726;44.732;10.550;2022-08-11T16:59:31;5.15;;;2.47;;
32236;SDS011;18726;44.732;10.550;2022-08-11T17:02:43;3.47;;;2.35;;
32236;SDS011;18726;44.732;10.550;2022-08-11T17:06:10;4.25;;;2.47;;
32236;SDS011;18726;44.732;10.550;2022-08-11T17:09:34;3.10;;;2.47;;
32236;SDS011;18726;44.732;10.550;2022-08-11T17:13:04;4.97;;;2.13;;
32236;SDS011;18726;44.732;10.550;2022-08-11T17:16:13;2.65;;;2.45;;
32236;SDS011;18726;44.732;10.550;2022-08-11T17:19:24;4.38;;;2.55;;
32236;SDS011;18726;44.732;10.550;2022-08-11T17:22:30;7.63;;;2.50;;
32236;SDS011;18726;44.732;10.550;2022-08-11T17:25:55;2.88;;;2.45;;
32236;SDS011;18726;44.732;10.550;2022-08-11T17:28:58;3.78;;;2.47;;
32236;SDS011;18726;44.732;10.550;2022-08-11T17:32:15;2.55;;;2.35;;
32236;SDS011;18726;44.732;10.550;2022-08-11T17:35:40;3.50;;;2.40;;
32236;SDS011;18726;44.732;10.550;2022-08-11T17:38:46;4.00;;;2.85;;
32236;SDS011;18726;44.732;10.550;2022-08-11T17:41:52;3.28;;;2.42;;
32236;SDS011;18726;44.732;10.550;2022-08-11T17:45:15;5.35;;;2.97;;
32236;SDS011;18726;44.732;10.550;2022-08-11T17:48:40;3.47;;;2.72;;
32236;SDS011;18726;44.732;10.550;2022-08-11T17:51:47;2.70;;;2.50;;
32236;SDS011;18726;44.732;10.550;2022-08-11T17:55:10;3.67;;;2.92;;
32236;SDS011;18726;44.732;10.550;2022-08-11T17:58:33;4.15;;;2.50;;
32236;SDS011;18726;44.732;10.550;2022-08-11T18:01:57;4.88;;;2.75;;
32236;SDS011;18726;44.732;10.550;2022-08-11T18:05:32;3.78;;;2.80;;
32236;SDS011;18726;44.732;10.550;2022-08-11T18:08:38;5.72;;;2.90;;
32236;SDS011;18726;44.732;10.550;2022-08-11T18:12:05;2.75;;;2.55;;
32236;SDS011;18726;44.732;10.550;2022-08-11T18:15:28;3.67;;;2.72;;
32236;SDS011;18726;44.732;10.550;2022-08-11T18:18:51;7.50;;;3.47;;
32236;SDS011;18726;44.732;10.550;2022-08-11T18:22:19;3.50;;;3.17;;
32236;SDS011;18726;44.732;10.550;2022-08-11T18:25:44;6.85;;;3.83;;
32236;SDS011;18726;44.732;10.550;2022-08-11T18:29:08;3.50;;;2.60;;
32236;SDS011;18726;44.732;10.550;2022-08-11T18:32:33;4.78;;;2.63;;
32236;SDS011;18726;44.732;10.550;2022-08-11T18:35:57;4.47;;;2.90;;
32236;SDS011;18726;44.732;10.550;2022-08-11T18:39:21;6.10;;;3.10;;
32236;SDS011;18726;44.732;10.550;2022-08-11T18:42:46;3.10;;;2.72;;
32236;SDS011;18726;44.732;10.550;2022-08-11T18:46:10;4.50;;;3.10;;
32236;SDS011;18726;44.732;10.550;2022-08-11T18:49:37;3.78;;;3.00;;
32236;SDS011;18726;44.732;10.550;2022-08-11T18:53:02;4.43;;;3.20;;
32236;SDS011;18726;44.732;10.550;2022-08-11T18:56:28;5.15;;;3.28;;
32236;SDS011;18726;44.732;10.550;2022-08-11T18:59:51;5.72;;;3.00;;
32236;SDS011;18726;44.732;10.550;2022-08-11T19:03:15;6.22;;;2.78;;
32236;SDS011;18726;44.732;10.550;2022-08-11T19:06:40;3.58;;;3.20;;
32236;SDS011;18726;44.732;10.550;2022-08-11T19:10:06;4.28;;;3.35;;
32236;SDS011;18726;44.732;10.550;2022-08-11T19:13:30;4.03;;;2.90;;
32236;SDS011;18726;44.732;10.550;2022-08-11T19:16:54;4.57;;;3.42;;
32236;SDS011;18726;44.732;10.550;2022-08-11T19:20:18;3.65;;;3.28;;
32236;SDS011;18726;44.732;10.550;2022-08-11T19:23:44;5.03;;;3.80;;
32236;SDS011;18726;44.732;10.550;2022-08-11T19:27:11;3.17;;;2.90;;
32236;SDS011;18726;44.732;10.550;2022-08-11T19:30:35;3.17;;;2.88;;
32236;SDS011;18726;44.732;10.550;2022-08-11T19:33:59;3.70;;;3.33;;
32236;SDS011;18726;44.732;10.550;2022-08-11T19:37:23;3.25;;;2.80;;
32236;SDS011;18726;44.732;10.550;2022-08-11T19:40:47;7.22;;;3.20;;
32236;SDS011;18726;44.732;10.550;2022-08-11T19:44:11;3.20;;;2.92;;
32236;SDS011;18726;44.732;10.550;2022-08-11T19:47:35;4.25;;;3.42;;
32236;SDS011;18726;44.732;10.550;2022-08-11T19:50:58;3.53;;;3.20;;
32236;SDS011;18726;44.732;10.550;2022-08-11T19:54:25;3.58;;;2.95;;
32236;SDS011;18726;44.732;10.550;2022-08-11T19:57:49;3.20;;;2.88;;
32236;SDS011;18726;44.732;10.550;2022-08-11T20:01:12;5.28;;;3.35;;
32236;SDS011;18726;44.732;10.550;2022-08-11T20:04:34;3.85;;;3.17;;
32236;SDS011;18726;44.732;10.550;2022-08-11T20:07:57;3.80;;;3.45;;
32236;SDS011;18726;44.732;10.550;2022-08-11T20:11:20;4.20;;;3.33;;
32236;SDS011;18726;44.732;10.550;2022-08-11T20:14:44;4.22;;;2.65;;
32236;SDS011;18726;44.732;10.550;2022-08-11T20:18:08;4.28;;;3.03;;
32236;SDS011;18726;44.732;10.550;2022-08-11T20:21:33;9.15;;;3.63;;
32236;SDS011;18726;44.732;10.550;2022-08-11T20:24:58;4.13;;;3.30;;
32236;SDS011;18726;44.732;10.550;2022-08-11T20:28:21;6.43;;;4.38;;
32236;SDS011;18726;44.732;10.550;2022-08-11T20:31:45;7.13;;;4.38;;
32236;SDS011;18726;44.732;10.550;2022-08-11T20:35:08;5.10;;;4.10;;
32236;SDS011;18726;44.732;10.550;2022-08-11T20:38:31;5.68;;;3.70;;
32236;SDS011;18726;44.732;10.550;2022-08-11T20:41:55;4.18;;;3.35;;
32236;SDS011;18726;44.732;10.550;2022-08-11T20:45:18;4.85;;;2.92;;
32236;SDS011;18726;44.732;10.550;2022-08-11T20:48:43;3.67;;;3.00;;
32236;SDS011;18726;44.732;10.550;2022-08-11T20:52:07;8.88;;;3.03;;
32236;SDS011;18726;44.732;10.550;2022-08-11T20:55:30;5.43;;;3.28;;
32236;SDS011;18726;44.732;10.550;2022-08-11T20:58:53;7.97;;;3.45;;
32236;SDS011;18726;44.732;10.550;2022-08-11T21:02:17;4.05;;;3.33;;
32236;SDS011;18726;44.732;10.550;2022-08-11T21:05:42;7.05;;;3.55;;
32236;SDS011;18726;44.732;10.550;2022-08-11T21:09:07;6.40;;;3.85;;
32236;SDS011;18726;44.732;10.550;2022-08-11T21:12:31;9.48;;;5.60;;
32236;SDS011;18726;44.732;10.550;2022-08-11T21:15:56;7.93;;;6.57;;
32236;SDS011;18726;44.732;10.550;2022-08-11T21:19:24;6.32;;;5.30;;
32236;SDS011;18726;44.732;10.550;2022-08-11T21:22:54;5.10;;;3.90;;
32236;SDS011;18726;44.732;10.550;2022-08-11T21:26:21;9.93;;;5.63;;
32236;SDS011;18726;44.732;10.550;2022-08-11T21:29:45;7.40;;;5.50;;
32236;SDS011;18726;44.732;10.550;2022-08-11T21:33:09;5.85;;;3.90;;
32236;SDS011;18726;44.732;10.550;2022-08-11T21:36:34;3.60;;;3.30;;
32236;SDS011;18726;44.732;10.550;2022-08-11T21:39:57;4.57;;;3.17;;
32236;SDS011;18726;44.732;10.550;2022-08-11T21:43:21;3.58;;;3.17;;
32236;SDS011;18726;44.732;10.550;2022-08-11T21:46:44;5.07;;;3.10;;
32236;SDS011;18726;44.732;10.550;2022-08-11T21:50:08;5.65;;;3.15;;
32236;SDS011;18726;44.732;10.550;2022-08-11T21:53:31;2.63;;;2.33;;
32236;SDS011;18726;44.732;10.550;2022-08-11T21:56:55;3.35;;;3.03;;
32236;SDS011;18726;44.732;10.550;2022-08-11T22:00:20;3.75;;;2.63;;
32236;SDS011;18726;44.732;10.550;2022-08-11T22:03:43;6.07;;;3.63;;
32236;SDS011;18726;44.732;10.550;2022-08-11T22:07:06;3.55;;;3.25;;
32236;SDS011;18726;44.732;10.550;2022-08-11T22:10:30;3.13;;;2.85;;
32236;SDS011;18726;44.732;10.550;2022-08-11T22:13:52;2.50;;;2.33;;
32236;SDS011;18726;44.732;10.550;2022-08-11T22:17:15;5.13;;;2.80;;
32236;SDS011;18726;44.732;10.550;2022-08-11T22:20:38;2.55;;;2.35;;
32236;SDS011;18726;44.732;10.550;2022-08-11T22:24:01;4.18;;;3.20;;
32236;SDS011;18726;44.732;10.550;2022-08-11T22:27:25;5.18;;;3.45;;
32236;SDS011;18726;44.732;10.550;2022-08-11T22:30:47;4.45;;;3.05;;
32236;SDS011;18726;44.732;10.550;2022-08-11T22:34:10;4.20;;;3.67;;
32236;SDS011;18726;44.732;10.550;2022-08-11T22:37:33;3.72;;;3.08;;
32236;SDS011;18726;44.732;10.550;2022-08-11T22:40:57;6.38;;;2.92;;
32236;SDS011;18726;44.732;10.550;2022-08-11T22:44:19;3.28;;;2.97;;
32236;SDS011;18726;44.732;10.550;2022-08-11T22:47:42;3.08;;;2.75;;